sensor_id;sensor_type;location;lat;lon;timestamp;P1;durP1;ratioP1;P2;durP2;ratioP2
15502;SDS011;7853;52.186;5.948;2022-11-15T00:02:47;16.31;;;8.86;;
15502;SDS011;7853;52.186;5.948;2022-11-15T00:02:47;16.13;;;9.23;;
15502;SDS011;7853;52.186;5.948;2022-11-15T00:03:00;15.27;;;8.46;;
15502;SDS011;7853;52.186;5.948;2022-11-15T00:03:50;15.70;;;8.72;;
15502;SDS011;7853;52.186;5.948;2022-11-15T00:04:40;17.10;;;9.02;;
15502;SDS011;7853;52.186;5.948;2022-11-15T00:05:36;16.18;;;9.08;;
15502;SDS011;7853;52.186;5.948;2022-11-15T00:06:34;17.10;;;9.05;;
15502;SDS011;7853;52.186;5.948;2022-11-15T00:07:33;15.18;;;8.66;;
15502;SDS011;7853;52.186;5.948;2022-11-15T00:08:33;15.96;;;8.87;;
15502;SDS011;7853;52.186;5.948;2022-11-15T00:09:33;17.15;;;9.20;;
15502;SDS011;7853;52.186;5.948;2022-11-15T00:10:32;16.03;;;8.73;;
15502;SDS011;7853;52.186;5.948;2022-11-15T00:11:33;14.98;;;8.64;;
15502;SDS011;7853;52.186;5.948;2022-11-15T00:12:33;17.81;;;8.77;;
15502;SDS011;7853;52.186;5.948;2022-11-15T00:13:33;16.30;;;8.56;;
15502;SDS011;7853;52.186;5.948;2022-11-15T00:14:33;17.68;;;9.40;;
15502;SDS011;7853;52.186;5.948;2022-11-15T00:15:34;16.77;;;9.28;;
15502;SDS011;7853;52.186;5.948;2022-11-15T00:16:33;17.09;;;8.93;;
15502;SDS011;7853;52.186;5.948;2022-11-15T00:17:33;17.16;;;9.17;;
15502;SDS011;7853;52.186;5.948;2022-11-15T00:18:33;17.16;;;9.30;;
15502;SDS011;7853;52.186;5.948;2022-11-15T00:19:33;16.31;;;8.55;;
15502;SDS011;7853;52.186;5.948;2022-11-15T00:20:33;15.45;;;8.18;;
15502;SDS011;7853;52.186;5.948;2022-11-15T00:21:33;17.34;;;8.76;;
15502;SDS011;7853;52.186;5.948;2022-11-15T00:22:33;17.64;;;9.26;;
15502;SDS011;7853;52.186;5.948;2022-11-15T00:23:33;16.09;;;9.05;;
15502;SDS011;7853;52.186;5.948;2022-11-15T00:24:33;17.51;;;9.35;;
15502;SDS011;7853;52.186;5.948;2022-11-15T00:25:33;19.50;;;10.54;;
15502;SDS011;7853;52.186;5.948;2022-11-15T00:26:33;16.74;;;9.32;;
15502;SDS011;7853;52.186;5.948;2022-11-15T00:27:33;18.39;;;9.08;;
15502;SDS011;7853;52.186;5.948;2022-11-15T00:28:34;17.16;;;8.99;;
15502;SDS011;7853;52.186;5.948;2022-11-15T00:29:34;19.00;;;9.71;;
15502;SDS011;7853;52.186;5.948;2022-11-15T00:30:34;17.90;;;9.24;;
15502;SDS011;7853;52.186;5.948;2022-11-15T00:31:34;18.08;;;9.78;;
15502;SDS011;7853;52.186;5.948;2022-11-15T00:32:34;20.15;;;10.81;;
15502;SDS011;7853;52.186;5.948;2022-11-15T00:33:34;19.14;;;9.67;;
15502;SDS011;7853;52.186;5.948;2022-11-15T00:34:34;17.13;;;8.83;;
15502;SDS011;7853;52.186;5.948;2022-11-15T00:35:34;18.20;;;9.10;;
15502;SDS011;7853;52.186;5.948;2022-11-15T00:36:34;18.30;;;8.95;;
15502;SDS011;7853;52.186;5.948;2022-11-15T00:37:34;19.85;;;10.12;;
15502;SDS011;7853;52.186;5.948;2022-11-15T00:38:35;18.94;;;9.68;;
15502;SDS011;7853;52.186;5.948;2022-11-15T00:39:34;17.61;;;9.15;;
15502;SDS011;7853;52.186;5.948;2022-11-15T00:40:34;18.64;;;9.01;;
15502;SDS011;7853;52.186;5.948;2022-11-15T00:41:34;18.24;;;9.34;;
15502;SDS011;7853;52.186;5.948;2022-11-15T00:42:34;20.08;;;10.08;;
15502;SDS011;7853;52.186;5.948;2022-11-15T00:43:34;20.65;;;9.84;;
15502;SDS011;7853;52.186;5.948;2022-11-15T00:44:34;19.77;;;10.33;;
15502;SDS011;7853;52.186;5.948;2022-11-15T00:45:34;19.47;;;10.11;;
15502;SDS011;7853;52.186;5.948;2022-11-15T00:46:34;20.55;;;9.95;;
15502;SDS011;7853;52.186;5.948;2022-11-15T00:47:34;18.91;;;9.60;;
15502;SDS011;7853;52.186;5.948;2022-11-15T00:48:34;18.30;;;9.18;;
15502;SDS011;7853;52.186;5.948;2022-11-15T00:49:34;19.12;;;9.55;;
15502;SDS011;7853;52.186;5.948;2022-11-15T00:50:34;18.26;;;9.62;;
15502;SDS011;7853;52.186;5.948;2022-11-15T00:51:34;17.25;;;8.97;;
15502;SDS011;7853;52.186;5.948;2022-11-15T00:52:34;17.23;;;9.37;;
15502;SDS011;7853;52.186;5.948;2022-11-15T00:53:37;17.56;;;9.36;;
15502;SDS011;7853;52.186;5.948;2022-11-15T00:54:34;19.92;;;9.79;;
15502;SDS011;7853;52.186;5.948;2022-11-15T00:55:34;19.29;;;9.68;;
15502;SDS011;7853;52.186;5.948;2022-11-15T00:56:34;19.73;;;9.71;;
15502;SDS011;7853;52.186;5.948;2022-11-15T00:57:34;19.55;;;9.81;;
15502;SDS011;7853;52.186;5.948;2022-11-15T00:58:34;19.20;;;9.93;;
15502;SDS011;7853;52.186;5.948;2022-11-15T00:59:34;19.25;;;9.80;;
15502;SDS011;7853;52.186;5.948;2022-11-15T01:00:34;19.78;;;9.38;;
15502;SDS011;7853;52.186;5.948;2022-11-15T01:01:34;22.56;;;9.97;;
15502;SDS011;7853;52.186;5.948;2022-11-15T01:02:34;17.24;;;8.86;;
15502;SDS011;7853;52.186;5.948;2022-11-15T01:03:35;18.58;;;9.72;;
15502;SDS011;7853;52.186;5.948;2022-11-15T01:04:37;19.64;;;10.47;;
15502;SDS011;7853;52.186;5.948;2022-11-15T01:05:36;18.12;;;9.66;;
15502;SDS011;7853;52.186;5.948;2022-11-15T01:06:34;19.39;;;9.69;;
15502;SDS011;7853;52.186;5.948;2022-11-15T01:07:35;17.04;;;9.04;;
15502;SDS011;7853;52.186;5.948;2022-11-15T01:08:35;18.56;;;9.58;;
15502;SDS011;7853;52.186;5.948;2022-11-15T01:09:34;19.36;;;9.36;;
15502;SDS011;7853;52.186;5.948;2022-11-15T01:10:34;19.04;;;9.75;;
15502;SDS011;7853;52.186;5.948;2022-11-15T01:11:35;18.74;;;9.34;;
15502;SDS011;7853;52.186;5.948;2022-11-15T01:12:34;17.20;;;9.22;;
15502;SDS011;7853;52.186;5.948;2022-11-15T01:13:35;16.51;;;9.29;;
15502;SDS011;7853;52.186;5.948;2022-11-15T01:14:34;17.42;;;9.30;;
15502;SDS011;7853;52.186;5.948;2022-11-15T01:15:38;18.35;;;9.05;;
15502;SDS011;7853;52.186;5.948;2022-11-15T01:16:34;18.14;;;9.10;;
15502;SDS011;7853;52.186;5.948;2022-11-15T01:17:34;16.52;;;9.08;;
15502;SDS011;7853;52.186;5.948;2022-11-15T01:18:34;18.71;;;9.23;;
15502;SDS011;7853;52.186;5.948;2022-11-15T01:19:34;17.17;;;8.78;;
15502;SDS011;7853;52.186;5.948;2022-11-15T01:20:38;19.81;;;9.86;;
15502;SDS011;7853;52.186;5.948;2022-11-15T01:21:34;15.66;;;9.02;;
15502;SDS011;7853;52.186;5.948;2022-11-15T01:22:34;18.99;;;9.59;;
15502;SDS011;7853;52.186;5.948;2022-11-15T01:23:35;17.01;;;8.91;;
15502;SDS011;7853;52.186;5.948;2022-11-15T01:24:34;16.29;;;8.67;;
15502;SDS011;7853;52.186;5.948;2022-11-15T01:25:34;17.11;;;9.39;;
15502;SDS011;7853;52.186;5.948;2022-11-15T01:26:34;18.79;;;9.30;;
15502;SDS011;7853;52.186;5.948;2022-11-15T01:27:34;16.18;;;8.77;;
15502;SDS011;7853;52.186;5.948;2022-11-15T01:28:36;18.43;;;9.31;;
15502;SDS011;7853;52.186;5.948;2022-11-15T01:29:35;17.82;;;8.93;;
15502;SDS011;7853;52.186;5.948;2022-11-15T01:30:35;16.66;;;8.84;;
15502;SDS011;7853;52.186;5.948;2022-11-15T01:31:34;18.49;;;9.48;;
15502;SDS011;7853;52.186;5.948;2022-11-15T01:32:34;16.90;;;8.70;;
15502;SDS011;7853;52.186;5.948;2022-11-15T01:33:35;16.56;;;9.03;;
15502;SDS011;7853;52.186;5.948;2022-11-15T01:34:34;17.96;;;9.48;;
15502;SDS011;7853;52.186;5.948;2022-11-15T01:35:37;17.42;;;9.46;;
15502;SDS011;7853;52.186;5.948;2022-11-15T01:36:34;16.79;;;9.14;;
15502;SDS011;7853;52.186;5.948;2022-11-15T01:37:35;17.53;;;9.07;;
15502;SDS011;7853;52.186;5.948;2022-11-15T01:38:34;16.88;;;8.91;;
15502;SDS011;7853;52.186;5.948;2022-11-15T01:39:35;15.95;;;8.64;;
15502;SDS011;7853;52.186;5.948;2022-11-15T01:40:35;17.76;;;9.13;;
15502;SDS011;7853;52.186;5.948;2022-11-15T01:41:35;17.17;;;8.77;;
15502;SDS011;7853;52.186;5.948;2022-11-15T01:42:34;16.22;;;8.80;;
15502;SDS011;7853;52.186;5.948;2022-11-15T01:43:35;14.89;;;8.95;;
15502;SDS011;7853;52.186;5.948;2022-11-15T01:44:39;16.78;;;9.23;;
15502;SDS011;7853;52.186;5.948;2022-11-15T01:45:34;16.97;;;8.78;;
15502;SDS011;7853;52.186;5.948;2022-11-15T01:46:35;17.03;;;9.18;;
15502;SDS011;7853;52.186;5.948;2022-11-15T01:47:35;15.91;;;8.96;;
15502;SDS011;7853;52.186;5.948;2022-11-15T01:48:35;16.78;;;9.04;;
15502;SDS011;7853;52.186;5.948;2022-11-15T01:49:35;14.59;;;8.93;;
15502;SDS011;7853;52.186;5.948;2022-11-15T01:50:35;15.36;;;8.33;;
15502;SDS011;7853;52.186;5.948;2022-11-15T01:51:34;15.03;;;8.49;;
15502;SDS011;7853;52.186;5.948;2022-11-15T01:52:35;15.13;;;9.02;;
15502;SDS011;7853;52.186;5.948;2022-11-15T01:53:35;15.13;;;8.94;;
15502;SDS011;7853;52.186;5.948;2022-11-15T01:54:34;18.45;;;9.84;;
15502;SDS011;7853;52.186;5.948;2022-11-15T01:55:35;15.73;;;8.75;;
15502;SDS011;7853;52.186;5.948;2022-11-15T01:56:36;14.92;;;8.72;;
15502;SDS011;7853;52.186;5.948;2022-11-15T01:57:34;13.81;;;8.37;;
15502;SDS011;7853;52.186;5.948;2022-11-15T01:58:34;14.95;;;8.72;;
15502;SDS011;7853;52.186;5.948;2022-11-15T01:59:35;13.93;;;8.56;;
15502;SDS011;7853;52.186;5.948;2022-11-15T02:00:37;15.99;;;8.70;;
15502;SDS011;7853;52.186;5.948;2022-11-15T02:01:35;14.83;;;8.71;;
15502;SDS011;7853;52.186;5.948;2022-11-15T02:02:35;15.96;;;8.54;;
15502;SDS011;7853;52.186;5.948;2022-11-15T02:03:36;14.79;;;9.04;;
15502;SDS011;7853;52.186;5.948;2022-11-15T02:04:35;15.02;;;9.18;;
15502;SDS011;7853;52.186;5.948;2022-11-15T02:05:35;14.91;;;8.36;;
15502;SDS011;7853;52.186;5.948;2022-11-15T02:06:35;13.80;;;8.27;;
15502;SDS011;7853;52.186;5.948;2022-11-15T02:07:35;14.40;;;8.67;;
15502;SDS011;7853;52.186;5.948;2022-11-15T02:08:35;14.83;;;8.42;;
15502;SDS011;7853;52.186;5.948;2022-11-15T02:09:35;14.79;;;8.53;;
15502;SDS011;7853;52.186;5.948;2022-11-15T02:10:34;13.92;;;8.50;;
15502;SDS011;7853;52.186;5.948;2022-11-15T02:11:34;15.51;;;8.75;;
15502;SDS011;7853;52.186;5.948;2022-11-15T02:12:35;13.94;;;8.51;;
15502;SDS011;7853;52.186;5.948;2022-11-15T02:13:35;14.51;;;8.77;;
15502;SDS011;7853;52.186;5.948;2022-11-15T02:14:35;14.75;;;8.25;;
15502;SDS011;7853;52.186;5.948;2022-11-15T02:15:36;14.93;;;8.65;;
15502;SDS011;7853;52.186;5.948;2022-11-15T02:16:35;14.91;;;8.77;;
15502;SDS011;7853;52.186;5.948;2022-11-15T02:17:40;14.82;;;8.64;;
15502;SDS011;7853;52.186;5.948;2022-11-15T02:18:35;14.46;;;8.96;;
15502;SDS011;7853;52.186;5.948;2022-11-15T02:19:40;16.16;;;9.32;;
15502;SDS011;7853;52.186;5.948;2022-11-15T02:20:39;14.26;;;8.55;;
15502;SDS011;7853;52.186;5.948;2022-11-15T02:21:35;14.10;;;8.46;;
15502;SDS011;7853;52.186;5.948;2022-11-15T02:22:37;15.59;;;8.44;;
15502;SDS011;7853;52.186;5.948;2022-11-15T02:23:42;14.81;;;8.14;;
15502;SDS011;7853;52.186;5.948;2022-11-15T02:24:53;14.77;;;8.49;;
15502;SDS011;7853;52.186;5.948;2022-11-15T02:26:06;13.40;;;8.37;;
15502;SDS011;7853;52.186;5.948;2022-11-15T02:28:29;13.59;;;8.20;;
15502;SDS011;7853;52.186;5.948;2022-11-15T02:29:33;13.19;;;7.96;;
15502;SDS011;7853;52.186;5.948;2022-11-15T02:30:34;13.54;;;8.28;;
15502;SDS011;7853;52.186;5.948;2022-11-15T02:31:34;15.98;;;8.96;;
15502;SDS011;7853;52.186;5.948;2022-11-15T02:32:34;13.60;;;8.48;;
15502;SDS011;7853;52.186;5.948;2022-11-15T02:33:35;13.33;;;8.65;;
15502;SDS011;7853;52.186;5.948;2022-11-15T02:34:35;13.47;;;8.45;;
15502;SDS011;7853;52.186;5.948;2022-11-15T02:35:35;13.67;;;8.37;;
15502;SDS011;7853;52.186;5.948;2022-11-15T02:36:39;14.90;;;8.55;;
15502;SDS011;7853;52.186;5.948;2022-11-15T02:37:34;14.02;;;8.62;;
15502;SDS011;7853;52.186;5.948;2022-11-15T02:38:40;13.09;;;8.35;;
15502;SDS011;7853;52.186;5.948;2022-11-15T02:39:34;13.58;;;8.65;;
15502;SDS011;7853;52.186;5.948;2022-11-15T02:40:36;14.12;;;8.84;;
15502;SDS011;7853;52.186;5.948;2022-11-15T02:41:35;15.27;;;8.83;;
15502;SDS011;7853;52.186;5.948;2022-11-15T02:42:35;14.75;;;8.66;;
15502;SDS011;7853;52.186;5.948;2022-11-15T02:43:36;15.90;;;8.90;;
15502;SDS011;7853;52.186;5.948;2022-11-15T02:44:35;13.59;;;8.33;;
15502;SDS011;7853;52.186;5.948;2022-11-15T02:45:35;13.43;;;9.30;;
15502;SDS011;7853;52.186;5.948;2022-11-15T02:46:35;13.98;;;9.67;;
15502;SDS011;7853;52.186;5.948;2022-11-15T02:47:36;12.70;;;8.53;;
15502;SDS011;7853;52.186;5.948;2022-11-15T02:48:34;13.34;;;8.55;;
15502;SDS011;7853;52.186;5.948;2022-11-15T02:49:34;15.01;;;8.84;;
15502;SDS011;7853;52.186;5.948;2022-11-15T02:50:34;15.64;;;8.86;;
15502;SDS011;7853;52.186;5.948;2022-11-15T02:51:34;14.19;;;8.81;;
15502;SDS011;7853;52.186;5.948;2022-11-15T02:52:34;15.95;;;9.31;;
15502;SDS011;7853;52.186;5.948;2022-11-15T02:53:34;15.62;;;9.18;;
15502;SDS011;7853;52.186;5.948;2022-11-15T02:54:35;16.92;;;9.26;;
15502;SDS011;7853;52.186;5.948;2022-11-15T02:55:35;15.11;;;9.20;;
15502;SDS011;7853;52.186;5.948;2022-11-15T02:56:34;14.84;;;8.40;;
15502;SDS011;7853;52.186;5.948;2022-11-15T02:57:38;14.51;;;8.60;;
15502;SDS011;7853;52.186;5.948;2022-11-15T02:58:48;14.29;;;9.01;;
15502;SDS011;7853;52.186;5.948;2022-11-15T02:59:53;14.64;;;8.72;;
15502;SDS011;7853;52.186;5.948;2022-11-15T03:01:02;14.86;;;8.64;;
15502;SDS011;7853;52.186;5.948;2022-11-15T03:01:51;13.01;;;8.79;;
15502;SDS011;7853;52.186;5.948;2022-11-15T03:02:42;14.78;;;9.33;;
15502;SDS011;7853;52.186;5.948;2022-11-15T03:03:40;12.65;;;8.80;;
15502;SDS011;7853;52.186;5.948;2022-11-15T03:04:36;14.27;;;8.63;;
15502;SDS011;7853;52.186;5.948;2022-11-15T03:05:34;13.92;;;8.92;;
15502;SDS011;7853;52.186;5.948;2022-11-15T03:06:35;14.16;;;9.08;;
15502;SDS011;7853;52.186;5.948;2022-11-15T03:07:34;15.05;;;9.45;;
15502;SDS011;7853;52.186;5.948;2022-11-15T03:08:35;14.90;;;9.00;;
15502;SDS011;7853;52.186;5.948;2022-11-15T03:09:34;14.80;;;8.75;;
15502;SDS011;7853;52.186;5.948;2022-11-15T03:10:36;13.41;;;8.68;;
15502;SDS011;7853;52.186;5.948;2022-11-15T03:11:35;13.89;;;8.64;;
15502;SDS011;7853;52.186;5.948;2022-11-15T03:12:34;14.60;;;8.95;;
15502;SDS011;7853;52.186;5.948;2022-11-15T03:13:35;14.99;;;8.60;;
15502;SDS011;7853;52.186;5.948;2022-11-15T03:14:34;14.23;;;8.80;;
15502;SDS011;7853;52.186;5.948;2022-11-15T03:15:37;13.15;;;8.46;;
15502;SDS011;7853;52.186;5.948;2022-11-15T03:16:34;13.67;;;8.71;;
15502;SDS011;7853;52.186;5.948;2022-11-15T03:17:34;14.29;;;8.81;;
15502;SDS011;7853;52.186;5.948;2022-11-15T03:18:35;13.54;;;8.44;;
15502;SDS011;7853;52.186;5.948;2022-11-15T03:19:34;12.89;;;8.43;;
15502;SDS011;7853;52.186;5.948;2022-11-15T03:20:35;14.43;;;8.62;;
15502;SDS011;7853;52.186;5.948;2022-11-15T03:21:34;14.67;;;9.13;;
15502;SDS011;7853;52.186;5.948;2022-11-15T03:22:35;13.31;;;8.60;;
15502;SDS011;7853;52.186;5.948;2022-11-15T03:23:34;13.03;;;8.35;;
15502;SDS011;7853;52.186;5.948;2022-11-15T03:24:34;14.33;;;8.69;;
15502;SDS011;7853;52.186;5.948;2022-11-15T03:25:34;15.13;;;8.73;;
15502;SDS011;7853;52.186;5.948;2022-11-15T03:26:34;14.27;;;8.73;;
15502;SDS011;7853;52.186;5.948;2022-11-15T03:27:35;13.00;;;8.36;;
15502;SDS011;7853;52.186;5.948;2022-11-15T03:28:35;13.78;;;8.50;;
15502;SDS011;7853;52.186;5.948;2022-11-15T03:29:35;12.71;;;8.32;;
15502;SDS011;7853;52.186;5.948;2022-11-15T03:30:34;12.44;;;8.24;;
15502;SDS011;7853;52.186;5.948;2022-11-15T03:31:36;14.54;;;9.07;;
15502;SDS011;7853;52.186;5.948;2022-11-15T03:32:36;13.94;;;8.51;;
15502;SDS011;7853;52.186;5.948;2022-11-15T03:33:34;13.17;;;8.63;;
15502;SDS011;7853;52.186;5.948;2022-11-15T03:34:34;16.09;;;9.86;;
15502;SDS011;7853;52.186;5.948;2022-11-15T03:35:35;13.94;;;8.32;;
15502;SDS011;7853;52.186;5.948;2022-11-15T03:36:34;13.24;;;8.41;;
15502;SDS011;7853;52.186;5.948;2022-11-15T03:37:35;13.53;;;8.63;;
15502;SDS011;7853;52.186;5.948;2022-11-15T03:38:34;13.27;;;8.05;;
15502;SDS011;7853;52.186;5.948;2022-11-15T03:39:34;12.66;;;8.27;;
15502;SDS011;7853;52.186;5.948;2022-11-15T03:40:35;13.77;;;8.66;;
15502;SDS011;7853;52.186;5.948;2022-11-15T03:41:35;12.99;;;8.26;;
15502;SDS011;7853;52.186;5.948;2022-11-15T03:42:35;13.28;;;8.76;;
15502;SDS011;7853;52.186;5.948;2022-11-15T03:43:35;11.99;;;8.07;;
15502;SDS011;7853;52.186;5.948;2022-11-15T03:44:36;13.10;;;9.00;;
15502;SDS011;7853;52.186;5.948;2022-11-15T03:45:36;12.18;;;8.23;;
15502;SDS011;7853;52.186;5.948;2022-11-15T03:46:38;13.00;;;8.58;;
15502;SDS011;7853;52.186;5.948;2022-11-15T03:47:34;11.98;;;8.24;;
15502;SDS011;7853;52.186;5.948;2022-11-15T03:48:35;13.48;;;8.53;;
15502;SDS011;7853;52.186;5.948;2022-11-15T03:49:35;13.50;;;8.65;;
15502;SDS011;7853;52.186;5.948;2022-11-15T03:50:34;13.79;;;8.30;;
15502;SDS011;7853;52.186;5.948;2022-11-15T03:51:34;13.93;;;8.21;;
15502;SDS011;7853;52.186;5.948;2022-11-15T03:52:34;12.79;;;8.31;;
15502;SDS011;7853;52.186;5.948;2022-11-15T03:53:34;13.49;;;8.55;;
15502;SDS011;7853;52.186;5.948;2022-11-15T03:54:34;12.98;;;8.95;;
15502;SDS011;7853;52.186;5.948;2022-11-15T03:55:34;12.76;;;8.19;;
15502;SDS011;7853;52.186;5.948;2022-11-15T03:56:34;13.76;;;8.32;;
15502;SDS011;7853;52.186;5.948;2022-11-15T03:57:34;13.80;;;8.78;;
15502;SDS011;7853;52.186;5.948;2022-11-15T03:58:34;13.69;;;8.99;;
15502;SDS011;7853;52.186;5.948;2022-11-15T03:59:34;12.62;;;8.72;;
15502;SDS011;7853;52.186;5.948;2022-11-15T04:00:34;13.61;;;9.08;;
15502;SDS011;7853;52.186;5.948;2022-11-15T04:01:34;14.14;;;8.74;;
15502;SDS011;7853;52.186;5.948;2022-11-15T04:02:34;12.57;;;8.14;;
15502;SDS011;7853;52.186;5.948;2022-11-15T04:03:35;13.20;;;8.92;;
15502;SDS011;7853;52.186;5.948;2022-11-15T04:04:34;11.65;;;8.13;;
15502;SDS011;7853;52.186;5.948;2022-11-15T04:05:34;14.51;;;9.14;;
15502;SDS011;7853;52.186;5.948;2022-11-15T04:06:34;13.74;;;8.89;;
15502;SDS011;7853;52.186;5.948;2022-11-15T04:07:34;15.69;;;9.88;;
15502;SDS011;7853;52.186;5.948;2022-11-15T04:08:34;15.07;;;10.76;;
15502;SDS011;7853;52.186;5.948;2022-11-15T04:09:35;15.49;;;9.46;;
15502;SDS011;7853;52.186;5.948;2022-11-15T04:10:34;13.91;;;8.65;;
15502;SDS011;7853;52.186;5.948;2022-11-15T04:11:35;16.18;;;9.92;;
15502;SDS011;7853;52.186;5.948;2022-11-15T04:12:35;15.26;;;9.13;;
15502;SDS011;7853;52.186;5.948;2022-11-15T04:13:35;14.58;;;8.00;;
15502;SDS011;7853;52.186;5.948;2022-11-15T04:14:34;14.25;;;8.36;;
15502;SDS011;7853;52.186;5.948;2022-11-15T04:15:35;11.49;;;7.28;;
15502;SDS011;7853;52.186;5.948;2022-11-15T04:16:34;14.42;;;9.69;;
15502;SDS011;7853;52.186;5.948;2022-11-15T04:17:35;16.29;;;10.10;;
15502;SDS011;7853;52.186;5.948;2022-11-15T04:18:34;14.83;;;10.03;;
15502;SDS011;7853;52.186;5.948;2022-11-15T04:19:34;16.67;;;9.86;;
15502;SDS011;7853;52.186;5.948;2022-11-15T04:20:35;15.90;;;9.83;;
15502;SDS011;7853;52.186;5.948;2022-11-15T04:21:34;16.66;;;9.84;;
15502;SDS011;7853;52.186;5.948;2022-11-15T04:22:34;16.68;;;10.05;;
15502;SDS011;7853;52.186;5.948;2022-11-15T04:23:34;14.79;;;9.87;;
15502;SDS011;7853;52.186;5.948;2022-11-15T04:24:34;13.52;;;8.25;;
15502;SDS011;7853;52.186;5.948;2022-11-15T04:25:35;14.93;;;9.83;;
15502;SDS011;7853;52.186;5.948;2022-11-15T04:26:35;15.10;;;9.32;;
15502;SDS011;7853;52.186;5.948;2022-11-15T04:27:34;15.81;;;9.51;;
15502;SDS011;7853;52.186;5.948;2022-11-15T04:28:35;14.69;;;9.13;;
15502;SDS011;7853;52.186;5.948;2022-11-15T04:29:34;14.26;;;8.47;;
15502;SDS011;7853;52.186;5.948;2022-11-15T04:30:34;14.45;;;8.68;;
15502;SDS011;7853;52.186;5.948;2022-11-15T04:31:34;14.69;;;8.96;;
15502;SDS011;7853;52.186;5.948;2022-11-15T04:32:35;15.31;;;9.28;;
15502;SDS011;7853;52.186;5.948;2022-11-15T04:33:35;15.16;;;9.40;;
15502;SDS011;7853;52.186;5.948;2022-11-15T04:34:34;15.25;;;9.38;;
15502;SDS011;7853;52.186;5.948;2022-11-15T04:35:35;15.15;;;8.87;;
15502;SDS011;7853;52.186;5.948;2022-11-15T04:36:35;13.44;;;8.16;;
15502;SDS011;7853;52.186;5.948;2022-11-15T04:37:34;13.55;;;8.14;;
15502;SDS011;7853;52.186;5.948;2022-11-15T04:38:35;13.88;;;8.29;;
15502;SDS011;7853;52.186;5.948;2022-11-15T04:39:34;13.41;;;8.40;;
15502;SDS011;7853;52.186;5.948;2022-11-15T04:40:34;13.90;;;9.24;;
15502;SDS011;7853;52.186;5.948;2022-11-15T04:41:35;14.34;;;9.21;;
15502;SDS011;7853;52.186;5.948;2022-11-15T04:42:34;14.58;;;9.05;;
15502;SDS011;7853;52.186;5.948;2022-11-15T04:43:34;14.37;;;8.56;;
15502;SDS011;7853;52.186;5.948;2022-11-15T04:44:35;14.78;;;9.77;;
15502;SDS011;7853;52.186;5.948;2022-11-15T04:45:34;14.41;;;9.11;;
15502;SDS011;7853;52.186;5.948;2022-11-15T04:46:35;14.14;;;8.87;;
15502;SDS011;7853;52.186;5.948;2022-11-15T04:47:35;13.58;;;8.64;;
15502;SDS011;7853;52.186;5.948;2022-11-15T04:48:35;13.32;;;8.16;;
15502;SDS011;7853;52.186;5.948;2022-11-15T04:49:34;14.68;;;9.35;;
15502;SDS011;7853;52.186;5.948;2022-11-15T04:50:35;13.98;;;9.05;;
15502;SDS011;7853;52.186;5.948;2022-11-15T04:51:34;14.46;;;8.96;;
15502;SDS011;7853;52.186;5.948;2022-11-15T04:52:35;14.49;;;8.70;;
15502;SDS011;7853;52.186;5.948;2022-11-15T04:53:35;13.34;;;8.04;;
15502;SDS011;7853;52.186;5.948;2022-11-15T04:54:35;13.82;;;8.00;;
15502;SDS011;7853;52.186;5.948;2022-11-15T04:55:35;15.54;;;9.16;;
15502;SDS011;7853;52.186;5.948;2022-11-15T04:56:35;14.11;;;9.10;;
15502;SDS011;7853;52.186;5.948;2022-11-15T04:57:34;13.67;;;8.69;;
15502;SDS011;7853;52.186;5.948;2022-11-15T04:58:34;13.34;;;8.61;;
15502;SDS011;7853;52.186;5.948;2022-11-15T04:59:35;15.91;;;8.31;;
15502;SDS011;7853;52.186;5.948;2022-11-15T05:00:34;15.44;;;9.60;;
15502;SDS011;7853;52.186;5.948;2022-11-15T05:01:34;14.81;;;9.08;;
15502;SDS011;7853;52.186;5.948;2022-11-15T05:02:34;13.71;;;8.63;;
15502;SDS011;7853;52.186;5.948;2022-11-15T05:03:34;14.42;;;9.07;;
15502;SDS011;7853;52.186;5.948;2022-11-15T05:04:35;14.55;;;8.74;;
15502;SDS011;7853;52.186;5.948;2022-11-15T05:05:34;12.57;;;8.12;;
15502;SDS011;7853;52.186;5.948;2022-11-15T05:06:35;15.03;;;8.68;;
15502;SDS011;7853;52.186;5.948;2022-11-15T05:07:34;14.58;;;8.85;;
15502;SDS011;7853;52.186;5.948;2022-11-15T05:08:35;14.66;;;8.87;;
15502;SDS011;7853;52.186;5.948;2022-11-15T05:09:35;14.44;;;8.88;;
15502;SDS011;7853;52.186;5.948;2022-11-15T05:10:34;12.36;;;7.91;;
15502;SDS011;7853;52.186;5.948;2022-11-15T05:11:35;13.70;;;7.59;;
15502;SDS011;7853;52.186;5.948;2022-11-15T05:12:35;12.61;;;8.11;;
15502;SDS011;7853;52.186;5.948;2022-11-15T05:13:35;12.17;;;8.24;;
15502;SDS011;7853;52.186;5.948;2022-11-15T05:14:34;14.51;;;8.52;;
15502;SDS011;7853;52.186;5.948;2022-11-15T05:15:35;15.29;;;9.06;;
15502;SDS011;7853;52.186;5.948;2022-11-15T05:16:35;13.63;;;8.74;;
15502;SDS011;7853;52.186;5.948;2022-11-15T05:17:35;12.07;;;8.12;;
15502;SDS011;7853;52.186;5.948;2022-11-15T05:18:35;13.34;;;8.20;;
15502;SDS011;7853;52.186;5.948;2022-11-15T05:19:35;13.48;;;8.61;;
15502;SDS011;7853;52.186;5.948;2022-11-15T05:20:35;12.40;;;8.16;;
15502;SDS011;7853;52.186;5.948;2022-11-15T05:21:35;12.55;;;8.68;;
15502;SDS011;7853;52.186;5.948;2022-11-15T05:22:34;14.23;;;8.64;;
15502;SDS011;7853;52.186;5.948;2022-11-15T05:23:34;12.31;;;8.47;;
15502;SDS011;7853;52.186;5.948;2022-11-15T05:24:34;13.55;;;7.96;;
15502;SDS011;7853;52.186;5.948;2022-11-15T05:25:35;13.47;;;8.99;;
15502;SDS011;7853;52.186;5.948;2022-11-15T05:26:34;13.29;;;8.32;;
15502;SDS011;7853;52.186;5.948;2022-11-15T05:27:34;13.79;;;8.77;;
15502;SDS011;7853;52.186;5.948;2022-11-15T05:28:35;11.85;;;8.19;;
15502;SDS011;7853;52.186;5.948;2022-11-15T05:29:34;14.75;;;9.43;;
15502;SDS011;7853;52.186;5.948;2022-11-15T05:30:34;13.94;;;8.52;;
15502;SDS011;7853;52.186;5.948;2022-11-15T05:31:36;11.82;;;8.01;;
15502;SDS011;7853;52.186;5.948;2022-11-15T05:32:35;12.17;;;8.03;;
15502;SDS011;7853;52.186;5.948;2022-11-15T05:33:35;11.10;;;7.72;;
15502;SDS011;7853;52.186;5.948;2022-11-15T05:34:34;12.55;;;8.71;;
15502;SDS011;7853;52.186;5.948;2022-11-15T05:35:37;13.50;;;9.52;;
15502;SDS011;7853;52.186;5.948;2022-11-15T05:36:35;14.59;;;9.15;;
15502;SDS011;7853;52.186;5.948;2022-11-15T05:37:34;13.86;;;8.70;;
15502;SDS011;7853;52.186;5.948;2022-11-15T05:38:35;14.51;;;9.53;;
15502;SDS011;7853;52.186;5.948;2022-11-15T05:39:35;14.57;;;9.19;;
15502;SDS011;7853;52.186;5.948;2022-11-15T05:40:35;15.72;;;9.26;;
15502;SDS011;7853;52.186;5.948;2022-11-15T05:41:36;12.59;;;9.01;;
15502;SDS011;7853;52.186;5.948;2022-11-15T05:42:35;13.82;;;8.90;;
15502;SDS011;7853;52.186;5.948;2022-11-15T05:43:35;13.61;;;8.97;;
15502;SDS011;7853;52.186;5.948;2022-11-15T05:44:35;11.17;;;8.17;;
15502;SDS011;7853;52.186;5.948;2022-11-15T05:45:35;13.56;;;9.13;;
15502;SDS011;7853;52.186;5.948;2022-11-15T05:46:35;13.01;;;8.12;;
15502;SDS011;7853;52.186;5.948;2022-11-15T05:47:35;13.97;;;8.72;;
15502;SDS011;7853;52.186;5.948;2022-11-15T05:48:35;16.10;;;9.05;;
15502;SDS011;7853;52.186;5.948;2022-11-15T05:49:35;13.06;;;8.07;;
15502;SDS011;7853;52.186;5.948;2022-11-15T05:50:35;11.51;;;7.74;;
15502;SDS011;7853;52.186;5.948;2022-11-15T05:51:35;11.19;;;8.25;;
15502;SDS011;7853;52.186;5.948;2022-11-15T05:52:35;12.88;;;8.05;;
15502;SDS011;7853;52.186;5.948;2022-11-15T05:53:35;12.38;;;8.06;;
15502;SDS011;7853;52.186;5.948;2022-11-15T05:54:35;12.11;;;7.83;;
15502;SDS011;7853;52.186;5.948;2022-11-15T05:55:35;13.80;;;8.27;;
15502;SDS011;7853;52.186;5.948;2022-11-15T05:56:35;14.91;;;8.60;;
15502;SDS011;7853;52.186;5.948;2022-11-15T05:57:35;13.36;;;7.97;;
15502;SDS011;7853;52.186;5.948;2022-11-15T05:58:35;12.46;;;8.02;;
15502;SDS011;7853;52.186;5.948;2022-11-15T05:59:34;14.13;;;8.76;;
15502;SDS011;7853;52.186;5.948;2022-11-15T06:00:35;14.19;;;8.94;;
15502;SDS011;7853;52.186;5.948;2022-11-15T06:01:35;11.69;;;8.10;;
15502;SDS011;7853;52.186;5.948;2022-11-15T06:02:35;14.08;;;9.22;;
15502;SDS011;7853;52.186;5.948;2022-11-15T06:03:34;13.60;;;9.12;;